Lockport, NY

8:48 AM EDT on September 02, 2015 (GMT -0400)
PENDLETON | | Change Station
CLOSE
Current Station
Personal Weather Station
Location: LOCKPORT, NY
Elevation: 595 ft
Nearby Weather Stations

Elev 595 ft 43.10 °N, 78.80 °W | Updated 0 second ago

Clear
Clear
71.2 °F
Feels Like 71.2 °F
N
0.0
Wind Variable Wind from North
Gusts 0.0 mph

Today
High -- | Low -- °F
--% Chance of Precip.
Yesterday
High -- | Low -- °F
Precip. -- in
6:40 AM 7:48 PM
Waning Gibbous, 80% visible
Pressure 30.05 in
Visibility 5.0 miles
Clouds Few 2600 ft
Dew Point 70 °F
Humidity 96%
Rainfall 0.00 in
Snow Depth Not available.
UV 1 out of 12
Pollen 10.90 out of 12
Air Quality Not available.
Flu Activity Not available.
SPECI KIAG 021220Z 21004KT 5SM BR FEW026 21/21 A3005 RMK AO2 T02110206
Pressure 30.05 in
Visibility 5.0 miles
Clouds Few 2600 ft
Dew Point 70 °F
Humidity 96%
Rainfall 0.00 in
Snow Depth Not available.
UV 1 out of 12
Pollen 10.90 out of 12
Air Quality Not available.
Flu Activity Not available.
SPECI KIAG 021220Z 21004KT 5SM BR FEW026 21/21 A3005 RMK AO2 T02110206

10-Day Weather Forecast

×

Almanac

Astronomy

Sep. 02, 2015 Rise Set
Actual Time
Civil Twilight
Nautical Twilight
Astronomical Twilight
Moon
Length of Visible Light
Length of Day
Tomorrow will be .
, % of the Moon is Illuminated

Today's Extremes

State Highs State Lows

Community

WunderPhotos

Upload Photos

1,851,738 photos uploaded!

WunderBlogs® & News

Nearby

Air Quality

  Air Quality AQ Index Pollutant
Not available.

Snow Depth

Station Depth Elevation

Earthquake Activity

City Distance Mag. Time & Date
Minimum magnitude displayed is 2.5.

Coastal Water Temperatures

Place Temperature

Stations

Nearby Weather Stations

Station Location Temp. Windchill Dew Point Humidity Wind Precip. Elev Updated Type